Meath Environmental Platform

Observations for Trim Market St

Time AQI Temp °C Hum % Pres Pa CO μg/m³ H₂S μg/m³ NO μg/m³ NO₂ μg/m³ O₃ μg/m³ SO₂ μg/m³ PM1 μg/m³ PM2.5 μg/m³ PM10 μg/m³
Sunday 16 August 2026
18:24 3 21.9 64 57,161 0 0 1.1 10.93 73.88 0 1.43 2.37 3.54
18:23 3 21.9 63 57,162 0 0 1.1 11.27 61.56 0 0.71 2.37 3.53
18:22 3 21.9 63 57,163 0 0 1.1 10.32 65.11 0 0 1.88 4.2
18:21 3 21.9 63 57,166 0.03 0 1.1 11.56 71.41 0 0.71 2.37 4.2
18:20 3 21.9 63 57,168 0.1 0 1.1 10.74 61.53 0 0 1.38 2.2
18:19 3 21.9 63 57,170 0.12 0 1.1 11.31 63.79 0 0.71 2.37 3.53
18:18 3 21.9 63 57,168 0.16 0 1.1 11.22 61.41 0 0 2.37 3.53
18:17 3 21.9 63 57,166 0.09 0 1.11 11.61 64.64 0 0.71 2.37 4.2
18:16 3 21.9 64 57,162 0.12 0 1.12 10.46 59.58 0 0.71 2.87 4.2
18:15 3 21.9 64 57,153 0 0 1.11 9.69 62.86 0 0.71 2.37 3.54
18:13 3 21.9 64 57,138 0 0 1.14 11.04 69.34 0 0 1.87 2.87
18:12 3 21.9 64 57,129 0.05 0 1.35 11.21 64.41 0 0.71 2.37 3.54
18:11 3 21.9 64 57,124 0.15 0 1.28 11.3 66.61 0 0.71 2.37 3.54
18:10 3 21.9 64 57,120 0.13 0 1.44 11.42 62.05 0 0 1.87 2.88
18:08 3 21.9 64 57,109 0.72 0 1.14 12.41 52.73 0 1.43 2.37 3.54
18:07 3 21.9 64 57,104 0.29 0 1.09 11.14 71.21 0 0.71 2.86 4.21
18:04 3 21.9 64 57,104 0 0 1.08 11.13 66.73 0 1.43 2.37 3.54
18:03 3 21.8 64 57,107 0.06 0 1.11 11.54 71.86 0 0 2.37 3.54
18:02 2 21.8 64 57,113 0.14 0 1.11 11.47 66.42 0 0 1.87 2.87
18:01 2 21.8 63 57,122 0.18 0 1.13 11.78 67.05 0 0.71 2.87 4.2